sensor_id;sensor_type;location;lat;lon;timestamp;pressure;altitude;pressure_sealevel;temperature;humidity
55418;BME280;41287;47.554;7.844;2023-11-21T00:02:12;97546.97;;;18.11;53.23
55418;BME280;41287;47.554;7.844;2023-11-21T00:04:38;97554.78;;;18.13;53.26
55418;BME280;41287;47.554;7.844;2023-11-21T00:07:03;97545.06;;;18.12;53.42
55418;BME280;41287;47.554;7.844;2023-11-21T00:09:28;97553.19;;;18.12;53.16
55418;BME280;41287;47.554;7.844;2023-11-21T00:11:54;97557.03;;;18.11;53.24
55418;BME280;41287;47.554;7.844;2023-11-21T00:14:19;97546.97;;;18.11;53.29
55418;BME280;41287;47.554;7.844;2023-11-21T00:16:45;97555.09;;;18.11;53.30
55418;BME280;41287;47.554;7.844;2023-11-21T00:19:10;97553.19;;;18.12;53.35
55418;BME280;41287;47.554;7.844;2023-11-21T00:21:36;97539.63;;;18.12;53.27
55418;BME280;41287;47.554;7.844;2023-11-21T00:24:01;97545.06;;;18.12;53.33
55418;BME280;41287;47.554;7.844;2023-11-21T00:26:27;97538.84;;;18.11;53.25
55418;BME280;41287;47.554;7.844;2023-11-21T00:28:52;97539.97;;;18.10;53.45
55418;BME280;41287;47.554;7.844;2023-11-21T00:31:17;97542.69;;;18.10;53.38
55418;BME280;41287;47.554;7.844;2023-11-21T00:33:43;97526.41;;;18.10;53.54
55418;BME280;41287;47.554;7.844;2023-11-21T00:36:08;97526.75;;;18.09;53.26
55418;BME280;41287;47.554;7.844;2023-11-21T00:38:35;97529.13;;;18.10;53.47
55418;BME280;41287;47.554;7.844;2023-11-21T00:41:01;97520.19;;;18.10;53.36
55418;BME280;41287;47.554;7.844;2023-11-21T00:43:26;97512.84;;;18.10;53.35
55418;BME280;41287;47.554;7.844;2023-11-21T00:45:51;97514.78;;;18.10;53.40
55418;BME280;41287;47.554;7.844;2023-11-21T00:48:17;97512.06;;;18.10;53.56
55418;BME280;41287;47.554;7.844;2023-11-21T00:50:44;97500.44;;;18.09;53.46
55418;BME280;41287;47.554;7.844;2023-11-21T00:53:10;97512.06;;;18.10;53.31
55418;BME280;41287;47.554;7.844;2023-11-21T00:55:36;97513.97;;;18.09;53.56
55418;BME280;41287;47.554;7.844;2023-11-21T00:58:02;97520.19;;;18.10;53.37
55418;BME280;41287;47.554;7.844;2023-11-21T01:00:29;97513.19;;;18.09;53.48
55418;BME280;41287;47.554;7.844;2023-11-21T01:02:54;97512.84;;;18.10;53.62
55418;BME280;41287;47.554;7.844;2023-11-21T01:05:22;97504.25;;;18.08;53.48
55418;BME280;41287;47.554;7.844;2023-11-21T01:07:47;97514.78;;;18.10;53.52
55418;BME280;41287;47.554;7.844;2023-11-21T01:10:13;97519.41;;;18.09;53.52
55418;BME280;41287;47.554;7.844;2023-11-21T01:12:39;97525.63;;;18.10;53.44
55418;BME280;41287;47.554;7.844;2023-11-21T01:15:06;97525.94;;;18.08;53.58
55418;BME280;41287;47.554;7.844;2023-11-21T01:17:37;97521.31;;;18.09;53.47
55418;BME280;41287;47.554;7.844;2023-11-21T01:20:03;97520.53;;;18.08;53.68
55418;BME280;41287;47.554;7.844;2023-11-21T01:22:35;97527.53;;;18.09;53.54
55418;BME280;41287;47.554;7.844;2023-11-21T01:25:01;97524.03;;;18.09;53.62
55418;BME280;41287;47.554;7.844;2023-11-21T01:27:29;97529.47;;;18.09;53.70
55418;BME280;41287;47.554;7.844;2023-11-21T01:29:55;97525.19;;;18.08;53.71
55418;BME280;41287;47.554;7.844;2023-11-21T01:32:20;97527.91;;;18.08;53.70
55418;BME280;41287;47.554;7.844;2023-11-21T01:34:45;97529.47;;;18.09;53.74
55418;BME280;41287;47.554;7.844;2023-11-21T01:37:10;97529.47;;;18.09;53.64
55418;BME280;41287;47.554;7.844;2023-11-21T01:39:39;97528.66;;;18.08;53.86
55418;BME280;41287;47.554;7.844;2023-11-21T01:42:06;97525.19;;;18.08;53.58
55418;BME280;41287;47.554;7.844;2023-11-21T01:44:32;97524.41;;;18.07;53.65
55418;BME280;41287;47.554;7.844;2023-11-21T01:46:58;97522.13;;;18.09;53.75
55418;BME280;41287;47.554;7.844;2023-11-21T01:49:29;97521.69;;;18.07;53.93
55418;BME280;41287;47.554;7.844;2023-11-21T01:51:54;97517.06;;;18.08;53.76
55418;BME280;41287;47.554;7.844;2023-11-21T01:54:22;97515.09;;;18.08;53.85
55418;BME280;41287;47.554;7.844;2023-11-21T01:56:47;97514.34;;;18.08;53.70
55418;BME280;41287;47.554;7.844;2023-11-21T01:59:17;97510.84;;;18.07;53.76
55418;BME280;41287;47.554;7.844;2023-11-21T02:01:43;97517.06;;;18.08;53.89
55418;BME280;41287;47.554;7.844;2023-11-21T02:04:09;97518.19;;;18.07;53.85
55418;BME280;41287;47.554;7.844;2023-11-21T02:06:35;97517.81;;;18.08;53.85
55418;BME280;41287;47.554;7.844;2023-11-21T02:09:00;97515.09;;;18.08;54.01
55418;BME280;41287;47.554;7.844;2023-11-21T02:11:26;97510.84;;;18.07;54.09
55418;BME280;41287;47.554;7.844;2023-11-21T02:13:53;97508.13;;;18.07;53.91
55418;BME280;41287;47.554;7.844;2023-11-21T02:16:19;97513.56;;;18.07;53.92
55418;BME280;41287;47.554;7.844;2023-11-21T02:18:48;97515.47;;;18.07;53.72
55418;BME280;41287;47.554;7.844;2023-11-21T02:21:14;97508.47;;;18.06;54.07
55418;BME280;41287;47.554;7.844;2023-11-21T02:23:39;97508.94;;;18.08;53.97
55418;BME280;41287;47.554;7.844;2023-11-21T02:26:09;97506.56;;;18.06;53.78
55418;BME280;41287;47.554;7.844;2023-11-21T02:28:35;97501.13;;;18.06;53.86
55418;BME280;41287;47.554;7.844;2023-11-21T02:31:00;97502.72;;;18.07;53.80
55418;BME280;41287;47.554;7.844;2023-11-21T02:33:28;97501.13;;;18.06;54.03
55418;BME280;41287;47.554;7.844;2023-11-21T02:35:53;97501.13;;;18.06;53.87
55418;BME280;41287;47.554;7.844;2023-11-21T02:38:20;97489.50;;;18.06;53.95
55418;BME280;41287;47.554;7.844;2023-11-21T02:40:47;97488.38;;;18.07;53.80
55418;BME280;41287;47.554;7.844;2023-11-21T02:43:14;97484.06;;;18.06;54.07
55418;BME280;41287;47.554;7.844;2023-11-21T02:45:40;97493.78;;;18.07;53.98
55418;BME280;41287;47.554;7.844;2023-11-21T02:48:07;97497.63;;;18.06;54.07
55418;BME280;41287;47.554;7.844;2023-11-21T02:50:32;97487.56;;;18.06;54.11
55418;BME280;41287;47.554;7.844;2023-11-21T02:52:59;97478.66;;;18.06;54.20
55418;BME280;41287;47.554;7.844;2023-11-21T02:55:26;97482.16;;;18.06;53.96
55418;BME280;41287;47.554;7.844;2023-11-21T02:57:51;97487.56;;;18.06;54.24
55418;BME280;41287;47.554;7.844;2023-11-21T03:00:17;97486.00;;;18.05;53.99
55418;BME280;41287;47.554;7.844;2023-11-21T03:02:43;97478.66;;;18.06;54.10
55418;BME280;41287;47.554;7.844;2023-11-21T03:05:08;97485.66;;;18.07;54.10
55418;BME280;41287;47.554;7.844;2023-11-21T03:07:34;97486.78;;;18.06;54.15
55418;BME280;41287;47.554;7.844;2023-11-21T03:10:00;97495.72;;;18.06;54.17
55418;BME280;41287;47.554;7.844;2023-11-21T03:12:25;97494.91;;;18.06;54.08
55418;BME280;41287;47.554;7.844;2023-11-21T03:14:51;97486.00;;;18.05;54.03
55418;BME280;41287;47.554;7.844;2023-11-21T03:17:16;97484.41;;;18.04;54.16
55418;BME280;41287;47.554;7.844;2023-11-21T03:19:42;97488.38;;;18.07;54.15
55418;BME280;41287;47.554;7.844;2023-11-21T03:22:07;97485.19;;;18.05;54.16
55418;BME280;41287;47.554;7.844;2023-11-21T03:24:34;97497.63;;;18.06;54.18
55418;BME280;41287;47.554;7.844;2023-11-21T03:26:59;97492.19;;;18.06;54.21
55418;BME280;41287;47.554;7.844;2023-11-21T03:29:25;97488.69;;;18.05;54.21
55418;BME280;41287;47.554;7.844;2023-11-21T03:31:51;97487.91;;;18.05;54.28
55418;BME280;41287;47.554;7.844;2023-11-21T03:34:25;97486.31;;;18.04;54.16
55418;BME280;41287;47.554;7.844;2023-11-21T03:36:55;97494.91;;;18.06;54.15
55418;BME280;41287;47.554;7.844;2023-11-21T03:39:21;97485.19;;;18.05;54.25
55418;BME280;41287;47.554;7.844;2023-11-21T03:41:47;97492.53;;;18.04;54.18
55418;BME280;41287;47.554;7.844;2023-11-21T03:44:13;97488.69;;;18.05;54.32
55418;BME280;41287;47.554;7.844;2023-11-21T03:46:38;97495.25;;;18.04;54.38
55418;BME280;41287;47.554;7.844;2023-11-21T03:49:05;97497.97;;;18.04;54.38
55418;BME280;41287;47.554;7.844;2023-11-21T03:51:33;97501.47;;;18.05;54.17
55418;BME280;41287;47.554;7.844;2023-11-21T03:53:59;97495.25;;;18.04;54.32
55418;BME280;41287;47.554;7.844;2023-11-21T03:56:24;97494.47;;;18.04;54.40
55418;BME280;41287;47.554;7.844;2023-11-21T03:58:49;97499.88;;;18.04;54.31
55418;BME280;41287;47.554;7.844;2023-11-21T04:01:24;97496.72;;;18.02;54.40
55418;BME280;41287;47.554;7.844;2023-11-21T04:03:50;97500.69;;;18.04;54.18
55418;BME280;41287;47.554;7.844;2023-11-21T04:06:18;97499.88;;;18.04;54.30
55418;BME280;41287;47.554;7.844;2023-11-21T04:08:44;97499.88;;;18.04;54.39
55418;BME280;41287;47.554;7.844;2023-11-21T04:11:10;97500.69;;;18.04;54.31
55418;BME280;41287;47.554;7.844;2023-11-21T04:13:39;97506.09;;;18.04;54.27
55418;BME280;41287;47.554;7.844;2023-11-21T04:16:06;97502.59;;;18.04;54.53
55418;BME280;41287;47.554;7.844;2023-11-21T04:18:33;97505.31;;;18.04;54.39
55418;BME280;41287;47.554;7.844;2023-11-21T04:21:01;97502.59;;;18.04;54.30
55418;BME280;41287;47.554;7.844;2023-11-21T04:23:29;97505.31;;;18.04;54.38
55418;BME280;41287;47.554;7.844;2023-11-21T04:25:56;97504.50;;;18.03;54.46
55418;BME280;41287;47.554;7.844;2023-11-21T04:28:23;97506.44;;;18.03;54.39
55418;BME280;41287;47.554;7.844;2023-11-21T04:30:51;97499.09;;;18.03;54.50
55418;BME280;41287;47.554;7.844;2023-11-21T04:33:17;97501.81;;;18.03;54.52
55418;BME280;41287;47.554;7.844;2023-11-21T04:35:42;97501.81;;;18.03;54.53
55418;BME280;41287;47.554;7.844;2023-11-21T04:38:07;97502.59;;;18.04;54.75
55418;BME280;41287;47.554;7.844;2023-11-21T04:40:33;97505.31;;;18.04;54.55
55418;BME280;41287;47.554;7.844;2023-11-21T04:42:58;97511.06;;;18.02;54.34
55418;BME280;41287;47.554;7.844;2023-11-21T04:45:24;97517.28;;;18.03;54.33
55418;BME280;41287;47.554;7.844;2023-11-21T04:47:49;97512.66;;;18.03;54.54
55418;BME280;41287;47.554;7.844;2023-11-21T04:50:15;97520.78;;;18.03;54.63
55418;BME280;41287;47.554;7.844;2023-11-21T04:52:40;97518.06;;;18.03;54.60
55418;BME280;41287;47.554;7.844;2023-11-21T04:55:06;97525.41;;;18.03;54.69
55418;BME280;41287;47.554;7.844;2023-11-21T04:57:38;97518.06;;;18.03;54.61
55418;BME280;41287;47.554;7.844;2023-11-21T05:00:04;97518.06;;;18.03;54.48
55418;BME280;41287;47.554;7.844;2023-11-21T05:02:31;97511.84;;;18.03;54.33
55418;BME280;41287;47.554;7.844;2023-11-21T05:04:59;97516.47;;;18.02;54.47
55418;BME280;41287;47.554;7.844;2023-11-21T05:07:24;97522.69;;;18.03;54.61
55418;BME280;41287;47.554;7.844;2023-11-21T05:09:54;97515.69;;;18.02;54.62
55418;BME280;41287;47.554;7.844;2023-11-21T05:12:21;97517.28;;;18.03;54.49
55418;BME280;41287;47.554;7.844;2023-11-21T05:14:47;97520.78;;;18.03;54.77
55418;BME280;41287;47.554;7.844;2023-11-21T05:17:13;97521.91;;;18.02;54.69
55418;BME280;41287;47.554;7.844;2023-11-21T05:19:39;97513.78;;;18.02;54.60
55418;BME280;41287;47.554;7.844;2023-11-21T05:22:05;97524.63;;;18.02;54.71
55418;BME280;41287;47.554;7.844;2023-11-21T05:24:31;97525.41;;;18.03;54.50
55418;BME280;41287;47.554;7.844;2023-11-21T05:26:56;97525.41;;;18.03;54.72
55418;BME280;41287;47.554;7.844;2023-11-21T05:29:22;97528.13;;;18.03;54.70
55418;BME280;41287;47.554;7.844;2023-11-21T05:31:47;97527.31;;;18.02;54.67
55418;BME280;41287;47.554;7.844;2023-11-21T05:34:12;97521.13;;;18.02;54.73
55418;BME280;41287;47.554;7.844;2023-11-21T05:36:38;97525.41;;;18.03;54.64
55418;BME280;41287;47.554;7.844;2023-11-21T05:39:05;97518.41;;;18.02;54.74
55418;BME280;41287;47.554;7.844;2023-11-21T05:41:30;97523.81;;;18.02;54.67
55418;BME280;41287;47.554;7.844;2023-11-21T05:43:56;97515.69;;;18.02;54.84
55418;BME280;41287;47.554;7.844;2023-11-21T05:46:21;97520.34;;;18.01;54.79
55418;BME280;41287;47.554;7.844;2023-11-21T05:48:47;97512.97;;;18.02;54.80
55418;BME280;41287;47.554;7.844;2023-11-21T05:51:12;97523.81;;;18.02;54.80
55418;BME280;41287;47.554;7.844;2023-11-21T05:53:39;97526.53;;;18.02;54.73
55418;BME280;41287;47.554;7.844;2023-11-21T05:56:06;97523.81;;;18.02;54.88
55418;BME280;41287;47.554;7.844;2023-11-21T05:58:39;97523.06;;;18.01;54.86
55418;BME280;41287;47.554;7.844;2023-11-21T06:01:05;97537.38;;;18.02;54.73
55418;BME280;41287;47.554;7.844;2023-11-21T06:03:34;97540.09;;;18.02;54.87
55418;BME280;41287;47.554;7.844;2023-11-21T06:05:59;97546.66;;;18.01;54.69
55418;BME280;41287;47.554;7.844;2023-11-21T06:08:24;97541.69;;;18.03;54.23
55418;BME280;41287;47.554;7.844;2023-11-21T06:10:50;97546.66;;;18.01;54.91
55418;BME280;41287;47.554;7.844;2023-11-21T06:13:15;97543.97;;;18.01;54.70
55418;BME280;41287;47.554;7.844;2023-11-21T06:15:50;97539.31;;;18.01;54.71
55418;BME280;41287;47.554;7.844;2023-11-21T06:18:15;97542.38;;;18.00;55.00
55418;BME280;41287;47.554;7.844;2023-11-21T06:20:40;97542.38;;;18.00;54.80
55418;BME280;41287;47.554;7.844;2023-11-21T06:23:06;97552.09;;;18.01;54.91
55418;BME280;41287;47.554;7.844;2023-11-21T06:25:31;97557.50;;;18.01;54.82
55418;BME280;41287;47.554;7.844;2023-11-21T06:28:01;97554.00;;;18.00;54.85
55418;BME280;41287;47.554;7.844;2023-11-21T06:30:26;97562.94;;;18.01;54.77
55418;BME280;41287;47.554;7.844;2023-11-21T06:32:51;97559.44;;;18.00;54.87
55418;BME280;41287;47.554;7.844;2023-11-21T06:35:17;97556.72;;;18.00;54.75
55418;BME280;41287;47.554;7.844;2023-11-21T06:37:43;97560.56;;;17.99;54.89
55418;BME280;41287;47.554;7.844;2023-11-21T06:40:13;97565.66;;;18.01;55.01
55418;BME280;41287;47.554;7.844;2023-11-21T06:42:40;97565.97;;;17.99;54.74
55418;BME280;41287;47.554;7.844;2023-11-21T06:45:06;97564.06;;;18.00;54.80
55418;BME280;41287;47.554;7.844;2023-11-21T06:47:32;97577.63;;;18.00;54.94
55418;BME280;41287;47.554;7.844;2023-11-21T06:49:58;97581.13;;;18.00;54.92
55418;BME280;41287;47.554;7.844;2023-11-21T06:52:24;97578.41;;;18.00;54.81
55418;BME280;41287;47.554;7.844;2023-11-21T06:54:49;97584.97;;;17.99;55.05
55418;BME280;41287;47.554;7.844;2023-11-21T06:57:16;97583.84;;;18.00;54.93
55418;BME280;41287;47.554;7.844;2023-11-21T06:59:44;97585.75;;;18.00;54.94
55418;BME280;41287;47.554;7.844;2023-11-21T07:02:09;97582.25;;;17.99;54.98
55418;BME280;41287;47.554;7.844;2023-11-21T07:04:38;97583.38;;;17.98;55.01
55418;BME280;41287;47.554;7.844;2023-11-21T07:07:04;97593.88;;;18.00;54.99
55418;BME280;41287;47.554;7.844;2023-11-21T07:09:30;97593.09;;;17.99;55.00
55418;BME280;41287;47.554;7.844;2023-11-21T07:11:56;97591.50;;;17.98;55.11
55418;BME280;41287;47.554;7.844;2023-11-21T07:14:21;97593.09;;;17.99;54.85
55418;BME280;41287;47.554;7.844;2023-11-21T07:16:47;97597.72;;;17.99;55.00
55418;BME280;41287;47.554;7.844;2023-11-21T07:19:12;97592.28;;;17.99;54.88
55418;BME280;41287;47.554;7.844;2023-11-21T07:21:39;97592.28;;;17.99;55.05
55418;BME280;41287;47.554;7.844;2023-11-21T07:24:05;97609.34;;;17.99;55.06
55418;BME280;41287;47.554;7.844;2023-11-21T07:26:32;97600.44;;;17.99;54.86
55418;BME280;41287;47.554;7.844;2023-11-21T07:28:58;97602.00;;;18.00;55.07
55418;BME280;41287;47.554;7.844;2023-11-21T07:31:24;97603.94;;;17.99;54.96
55418;BME280;41287;47.554;7.844;2023-11-21T07:33:51;97603.94;;;17.99;55.13
55418;BME280;41287;47.554;7.844;2023-11-21T07:36:17;97606.63;;;17.99;55.11
55418;BME280;41287;47.554;7.844;2023-11-21T07:38:43;97610.47;;;17.98;55.08
55418;BME280;41287;47.554;7.844;2023-11-21T07:41:10;97612.06;;;17.99;55.16
55418;BME280;41287;47.554;7.844;2023-11-21T07:43:35;97607.78;;;17.98;55.24
55418;BME280;41287;47.554;7.844;2023-11-21T07:46:02;97612.06;;;17.99;55.09
55418;BME280;41287;47.554;7.844;2023-11-21T07:48:29;97605.06;;;17.98;55.12
55418;BME280;41287;47.554;7.844;2023-11-21T07:50:54;97603.13;;;17.99;55.20
55418;BME280;41287;47.554;7.844;2023-11-21T07:53:20;97608.56;;;17.99;55.03
55418;BME280;41287;47.554;7.844;2023-11-21T07:55:45;97612.06;;;17.99;55.21
55418;BME280;41287;47.554;7.844;2023-11-21T07:58:14;97608.91;;;17.97;55.07
55418;BME280;41287;47.554;7.844;2023-11-21T08:00:41;97610.47;;;17.98;55.02
55418;BME280;41287;47.554;7.844;2023-11-21T08:03:07;97607.78;;;17.98;55.13
55418;BME280;41287;47.554;7.844;2023-11-21T08:05:32;97602.34;;;17.98;55.03
55418;BME280;41287;47.554;7.844;2023-11-21T08:07:58;97608.56;;;17.99;55.31
55418;BME280;41287;47.554;7.844;2023-11-21T08:10:25;97603.94;;;17.99;55.08
55418;BME280;41287;47.554;7.844;2023-11-21T08:12:56;97596.81;;;17.95;55.13
55418;BME280;41287;47.554;7.844;2023-11-21T08:15:21;97588.47;;;18.00;55.15
55418;BME280;41287;47.554;7.844;2023-11-21T08:17:47;97596.13;;;17.98;55.03
55418;BME280;41287;47.554;7.844;2023-11-21T08:20:13;97600.75;;;17.97;55.24
55418;BME280;41287;47.554;7.844;2023-11-21T08:22:41;97606.97;;;17.98;55.01
55418;BME280;41287;47.554;7.844;2023-11-21T08:25:08;97616.22;;;17.97;55.18
55418;BME280;41287;47.554;7.844;2023-11-21T08:27:36;97618.59;;;17.98;55.35
55418;BME280;41287;47.554;7.844;2023-11-21T08:30:03;97624.03;;;17.98;55.27
55418;BME280;41287;47.554;7.844;2023-11-21T08:32:29;97622.44;;;17.97;55.30
55418;BME280;41287;47.554;7.844;2023-11-21T08:34:55;97632.97;;;17.99;55.27
55418;BME280;41287;47.554;7.844;2023-11-21T08:37:22;97627.88;;;17.97;55.10
55418;BME280;41287;47.554;7.844;2023-11-21T08:39:49;97621.66;;;17.97;55.32
55418;BME280;41287;47.554;7.844;2023-11-21T08:42:14;97633.28;;;17.97;55.09
55418;BME280;41287;47.554;7.844;2023-11-21T08:44:40;97641.41;;;17.97;55.37
55418;BME280;41287;47.554;7.844;2023-11-21T08:47:06;97638.72;;;17.97;55.37
55418;BME280;41287;47.554;7.844;2023-11-21T08:49:31;97644.13;;;17.97;55.26
55418;BME280;41287;47.554;7.844;2023-11-21T08:51:57;97639.50;;;17.98;55.24
55418;BME280;41287;47.554;7.844;2023-11-21T08:54:25;97647.63;;;17.98;55.24
55418;BME280;41287;47.554;7.844;2023-11-21T08:56:51;97643.81;;;17.99;55.37
55418;BME280;41287;47.554;7.844;2023-11-21T08:59:16;97644.13;;;17.97;55.39
55418;BME280;41287;47.554;7.844;2023-11-21T09:01:43;97643.34;;;17.97;55.42
55418;BME280;41287;47.554;7.844;2023-11-21T09:04:10;97646.84;;;17.97;55.35
55418;BME280;41287;47.554;7.844;2023-11-21T09:06:36;97642.22;;;17.98;55.16
55418;BME280;41287;47.554;7.844;2023-11-21T09:09:01;97646.84;;;17.97;55.48
55418;BME280;41287;47.554;7.844;2023-11-21T09:11:27;97651.13;;;17.98;55.31
55418;BME280;41287;47.554;7.844;2023-11-21T09:13:58;97651.47;;;17.97;55.37
55418;BME280;41287;47.554;7.844;2023-11-21T09:16:23;97648.44;;;17.98;55.39
55418;BME280;41287;47.554;7.844;2023-11-21T09:18:49;97645.25;;;17.96;55.36
55418;BME280;41287;47.554;7.844;2023-11-21T09:21:14;97642.53;;;17.96;55.35
55418;BME280;41287;47.554;7.844;2023-11-21T09:23:39;97662.31;;;17.97;55.35
55418;BME280;41287;47.554;7.844;2023-11-21T09:26:06;97665.81;;;17.97;55.29
55418;BME280;41287;47.554;7.844;2023-11-21T09:28:32;97668.53;;;17.97;55.33
55418;BME280;41287;47.554;7.844;2023-11-21T09:30:57;97663.44;;;17.96;55.35
55418;BME280;41287;47.554;7.844;2023-11-21T09:33:24;97665.03;;;17.97;55.29
55418;BME280;41287;47.554;7.844;2023-11-21T09:35:51;97669.66;;;17.96;55.45
55418;BME280;41287;47.554;7.844;2023-11-21T09:38:17;97666.16;;;17.96;55.33
55418;BME280;41287;47.554;7.844;2023-11-21T09:40:43;97668.06;;;17.95;55.59
55418;BME280;41287;47.554;7.844;2023-11-21T09:43:18;97668.88;;;17.96;55.51
55418;BME280;41287;47.554;7.844;2023-11-21T09:45:48;97675.06;;;17.96;55.41
55418;BME280;41287;47.554;7.844;2023-11-21T09:48:19;97672.38;;;17.96;55.43
55418;BME280;41287;47.554;7.844;2023-11-21T09:50:46;97672.38;;;17.96;55.41
55418;BME280;41287;47.554;7.844;2023-11-21T09:53:21;97669.66;;;17.96;55.49
55418;BME280;41287;47.554;7.844;2023-11-21T09:55:50;97668.88;;;17.96;55.59
55418;BME280;41287;47.554;7.844;2023-11-21T09:58:16;97668.06;;;17.95;55.38
55418;BME280;41287;47.554;7.844;2023-11-21T10:00:44;97673.50;;;17.95;55.48
55418;BME280;41287;47.554;7.844;2023-11-21T10:03:11;97667.28;;;17.95;55.63
55418;BME280;41287;47.554;7.844;2023-11-21T10:05:37;97666.50;;;17.94;55.51
55418;BME280;41287;47.554;7.844;2023-11-21T10:08:11;97669.22;;;17.94;55.46
55418;BME280;41287;47.554;7.844;2023-11-21T10:10:41;97672.38;;;17.96;55.60
55418;BME280;41287;47.554;7.844;2023-11-21T10:13:11;97674.28;;;17.96;55.45
55418;BME280;41287;47.554;7.844;2023-11-21T10:15:37;97665.34;;;17.95;55.41
55418;BME280;41287;47.554;7.844;2023-11-21T10:18:04;97677.78;;;17.96;55.44
55418;BME280;41287;47.554;7.844;2023-11-21T10:20:33;97668.06;;;17.95;55.68
55418;BME280;41287;47.554;7.844;2023-11-21T10:23:00;97663.44;;;17.96;55.45
55418;BME280;41287;47.554;7.844;2023-11-21T10:25:27;97666.50;;;17.94;55.39
55418;BME280;41287;47.554;7.844;2023-11-21T10:27:57;97663.81;;;17.94;55.57
55418;BME280;41287;47.554;7.844;2023-11-21T10:30:27;97664.81;;;17.90;55.61
55418;BME280;41287;47.554;7.844;2023-11-21T10:32:58;97671.94;;;17.94;55.54
55418;BME280;41287;47.554;7.844;2023-11-21T10:35:24;97664.56;;;17.95;55.57
55418;BME280;41287;47.554;7.844;2023-11-21T10:37:59;97662.56;;;17.92;55.50
55418;BME280;41287;47.554;7.844;2023-11-21T10:40:27;97671.16;;;17.94;55.72
55418;BME280;41287;47.554;7.844;2023-11-21T10:42:59;97658.38;;;17.94;55.50
55418;BME280;41287;47.554;7.844;2023-11-21T10:45:30;97663.00;;;17.94;55.61
55418;BME280;41287;47.554;7.844;2023-11-21T10:47:56;97667.63;;;17.93;55.58
55418;BME280;41287;47.554;7.844;2023-11-21T10:50:21;97665.25;;;17.92;55.67
55418;BME280;41287;47.554;7.844;2023-11-21T10:52:46;97668.75;;;17.92;55.70
55418;BME280;41287;47.554;7.844;2023-11-21T10:55:19;97667.19;;;17.91;55.69
55418;BME280;41287;47.554;7.844;2023-11-21T10:57:52;97673.06;;;17.93;55.72
55418;BME280;41287;47.554;7.844;2023-11-21T11:00:18;97676.56;;;17.94;55.64
55418;BME280;41287;47.554;7.844;2023-11-21T11:02:52;97672.59;;;17.91;55.78
55418;BME280;41287;47.554;7.844;2023-11-21T11:05:20;97676.91;;;17.92;55.71
55418;BME280;41287;47.554;7.844;2023-11-21T11:07:48;97674.19;;;17.92;55.55
55418;BME280;41287;47.554;7.844;2023-11-21T11:10:18;97669.56;;;17.93;55.72
55418;BME280;41287;47.554;7.844;2023-11-21T11:12:46;97677.34;;;17.94;55.82
55418;BME280;41287;47.554;7.844;2023-11-21T11:15:15;97676.91;;;17.92;55.60
55418;BME280;41287;47.554;7.844;2023-11-21T11:17:43;97678.81;;;17.92;55.50
55418;BME280;41287;47.554;7.844;2023-11-21T11:20:12;97681.19;;;17.93;55.65
55418;BME280;41287;47.554;7.844;2023-11-21T11:22:46;97679.59;;;17.92;55.52
55418;BME280;41287;47.554;7.844;2023-11-21T11:25:21;97682.78;;;17.94;55.66
55418;BME280;41287;47.554;7.844;2023-11-21T11:28:12;97676.44;;;17.90;55.83
55418;BME280;41287;47.554;7.844;2023-11-21T11:33:49;97673.72;;;17.90;55.82
55418;BME280;41287;47.554;7.844;2023-11-21T11:39:27;97678.69;;;17.88;55.64
55418;BME280;41287;47.554;7.844;2023-11-21T11:41:53;97681.53;;;17.92;55.85
55418;BME280;41287;47.554;7.844;2023-11-21T11:47:23;97674.19;;;17.92;55.74
55418;BME280;41287;47.554;7.844;2023-11-21T11:50:03;97679.47;;;17.89;55.65
55418;BME280;41287;47.554;7.844;2023-11-21T11:52:34;97674.19;;;17.92;55.97
55418;BME280;41287;47.554;7.844;2023-11-21T11:55:01;97683.44;;;17.91;55.68
55418;BME280;41287;47.554;7.844;2023-11-21T11:57:30;97687.75;;;17.92;56.00
55418;BME280;41287;47.554;7.844;2023-11-21T12:00:22;97685.25;;;17.87;55.73
55418;BME280;41287;47.554;7.844;2023-11-21T12:02:57;97683.78;;;17.90;55.79
55418;BME280;41287;47.554;7.844;2023-11-21T12:05:25;97687.28;;;17.90;55.83
55418;BME280;41287;47.554;7.844;2023-11-21T12:07:57;97690.00;;;17.90;55.83
55418;BME280;41287;47.554;7.844;2023-11-21T12:10:40;97683.34;;;17.88;55.71
55418;BME280;41287;47.554;7.844;2023-11-21T12:13:09;97685.34;;;17.91;55.71
55418;BME280;41287;47.554;7.844;2023-11-21T12:15:36;97692.38;;;17.92;55.81
55418;BME280;41287;47.554;7.844;2023-11-21T12:18:04;97690.78;;;17.91;55.91
55418;BME280;41287;47.554;7.844;2023-11-21T12:20:30;97692.69;;;17.90;55.89
55418;BME280;41287;47.554;7.844;2023-11-21T12:22:59;97700.03;;;17.90;55.84
55418;BME280;41287;47.554;7.844;2023-11-21T12:25:27;97698.91;;;17.91;55.83
55418;BME280;41287;47.554;7.844;2023-11-21T12:27:54;97702.41;;;17.91;55.77
55418;BME280;41287;47.554;7.844;2023-11-21T12:30:22;97697.00;;;17.91;56.01
55418;BME280;41287;47.554;7.844;2023-11-21T12:32:50;97700.50;;;17.92;55.84
55418;BME280;41287;47.554;7.844;2023-11-21T12:35:23;97704.66;;;17.89;55.85
55418;BME280;41287;47.554;7.844;2023-11-21T12:37:50;97715.16;;;17.91;55.92
55418;BME280;41287;47.554;7.844;2023-11-21T12:40:18;97709.75;;;17.91;55.89
55418;BME280;41287;47.554;7.844;2023-11-21T12:42:45;97706.25;;;17.90;55.62
55418;BME280;41287;47.554;7.844;2023-11-21T12:45:26;97707.72;;;17.88;55.72
55418;BME280;41287;47.554;7.844;2023-11-21T12:48:02;97713.59;;;17.90;55.95
55418;BME280;41287;47.554;7.844;2023-11-21T12:50:30;97707.84;;;17.91;55.77
55418;BME280;41287;47.554;7.844;2023-11-21T12:53:00;97705.13;;;17.91;55.94
55418;BME280;41287;47.554;7.844;2023-11-21T12:55:30;97698.13;;;17.90;55.77
55418;BME280;41287;47.554;7.844;2023-11-21T12:57:57;97703.53;;;17.90;55.83
55418;BME280;41287;47.554;7.844;2023-11-21T13:00:55;97698.03;;;17.87;55.79
55418;BME280;41287;47.554;7.844;2023-11-21T13:03:22;97700.81;;;17.90;55.71
55418;BME280;41287;47.554;7.844;2023-11-21T13:05:53;97698.13;;;17.90;55.88
55418;BME280;41287;47.554;7.844;2023-11-21T13:08:20;97697.31;;;17.90;55.92
55418;BME280;41287;47.554;7.844;2023-11-21T13:10:50;97702.41;;;17.91;55.89